Terminal Aerodrome Forecast
Issued by NWS

Home | Current Version | Previous Version | Text Only | Print | Product List | Glossary On
Versions: 1 2 3 4 5 6 7 8 9 10 11 12 13 14 15 16 17 18 19 20 21 22 23 24 25 26 27 28 29 30
000
FTUS44 KHGX 161120
TAFIAH
TAF
KIAH 161120Z 1612/1718 11004KT P6SM FEW250
     FM161500 11011KT P6SM SCT250
     FM162100 13014KT P6SM FEW040
     FM170200 13006KT P6SM SCT025
     FM171300 10007KT P6SM BKN025=

USA.gov is the U.S. government's official web portal to all federal, state and local government web resources and services.